1920 Tropical Cyclone NOT_NAMED (1920033S15151)


IBTrACS version v04r00. Visit IBTrACS website for data access.
Please direct all questions to the IBTrACS Q and A forum

Storm track - Intensity - Wind Radii - Intensity Data - Source Data - All data

Summary Information

Storm ID 1920033S15151
Start Feb 1 23Z
Landfall Feb 2 21Z
Max Intensity 50 kt (Feb 3 00Z), 988 mb (Feb 2 23Z)
End Feb 7 05Z
ATCF IDs
Track status Best track data.

Storm track plot

Map of storm track

Intensity plots

Map of storm track

Radial wind information

No radial wind information for this storm


Position and Intensity Table

BASIN ISO_TIME_________ NATURE LAT LON WMO PRES BOM PRES DS824 WIND DS824 PRES
degrees north degrees east mb mb kts mb
SP 1920-02-01 23:00:00 NR -15.20 150.70
SP 1920-02-02 00:00:00 TS -15.20 150.41
SP 03:00:00 TS -15.28 149.61
SP 05:00:00 TS -15.43 149.06
SP 06:00:00 TS -15.54 148.81
SP 09:00:00 TS -15.74 148.08
SP 10:00:00 TS -15.84 147.84
SP 12:00:00 TS -15.96 147.38
SP 15:00:00 TS -16.15 146.71
SP 17:00:00 TS -16.27 146.27
SP 18:00:00 TS -16.33 146.05
SP 20:00:00 TS -16.44 145.61
SP 21:00:00 TS -16.51 145.40
SP 23:00:00 TS -16.63 144.98 988 988
SP 1920-02-03 00:00:00 TS -16.70 144.79 50 988
SP 03:00:00 NR -16.92 144.19
SP 05:00:00 NR -17.05 143.75
SP 06:00:00 NR -17.12 143.52
SP 09:00:00 NR -17.32 142.80
SP 12:00:00 NR -17.55 142.07
SP 15:00:00 NR -17.83 141.33
SP 17:00:00 NR -18.05 140.85
SP 18:00:00 NR -18.05 140.55
SP 21:00:00 NR -18.24 139.68
SP 23:00:00 NR -18.22 138.99
SP 1920-02-04 00:00:00 NR -17.91 138.46
SP 03:00:00 NR -18.30 137.70
SP 05:00:00 NR -18.60 137.30
SP 06:00:00 NR -18.76 137.13
SP 09:00:00 NR -19.28 136.73
SP 12:00:00 NR -19.85 136.53
SP 15:00:00 NR -20.43 136.51
SP 17:00:00 NR -20.80 136.60
SP 18:00:00 NR -20.97 136.65
SP 21:00:00 NR -21.48 136.95
SP 1920-02-05 00:00:00 NR -21.94 137.39
SP 03:00:00 NR -22.36 137.92
SP 05:00:00 NR -22.60 138.30
SP 06:00:00 NR -22.72 138.46
SP 09:00:00 NR -23.02 138.98
SP 12:00:00 NR -23.28 139.54
SP 15:00:00 NR -23.48 140.11
SP 17:00:00 NR -23.60 140.50
SP 18:00:00 NR -23.67 140.66
SP 21:00:00 NR -23.88 141.15
SP 1920-02-06 00:00:00 NR -24.03 141.69
SP 03:00:00 NR -24.11 142.35
SP 05:00:00 NR -24.10 142.90
SP 06:00:00 NR -24.09 143.22
SP 09:00:00 NR -23.98 144.34
SP 12:00:00 NR -23.77 145.59
SP 15:00:00 NR -23.46 146.92
SP 17:00:00 NR -23.20 147.80
SP 18:00:00 NR -23.05 148.23
SP 21:00:00 NR -22.56 149.50
SP 1920-02-07 00:00:00 NR -22.01 150.72
SP 03:00:00 NR -21.41 151.92
SP 05:00:00 NR -21.00 152.70

Source Information

Agency Information
USA
TOKYO
CMA
HKO
NEWDELHI
REUNION
BOM IDCKMSTM0S.csv:Line=340:unnamed
NADI
WELLINGTON
DS824 aus_area.dat:34:NOT NAMED
TD9636 cons_worldwide_trop_cyclone_18710101-19891231-006:Line=1093
TD9635
NEUMANN
MLC

All available IBTrACS Data

SEASON BASIN SUBBASIN ISO_TIME_________ NATURE LAT LON WMO PRES WMO AGENCY DIST2LAND LANDFALL IFLAG USA SSHS BOM LAT BOM LON BOM PRES BOM PRES_METHOD DS824 LAT DS824 LON DS824 STAGE DS824 WIND DS824 PRES TD9636 LAT TD9636 LON TD9636 STAGE STORM SPEED STORM DIR
Year degrees north degrees east mb km km 1 degrees north degrees east mb degrees north degrees east kts mb degrees north degrees east kts degrees
1920 SP EA 1920-02-01 23:00:00 NR -15.20 150.70 bom 504 503 ______O_______ -1 -15.20 150.70 17 269
1920 SP EA 1920-02-02 00:00:00 TS -15.20 150.41 503 448 ______P__O____ -1 -15.20 150.41 -15.20 150.40 TC 16 266
1920 SP EA 03:00:00 TS -15.28 149.61 438 385 ______P__P____ -1 -15.22 149.56 -15.37 149.67 TC 16 260
1920 SP EA 05:00:00 TS -15.43 149.06 385 352 ______P__PO___ -1 -15.25 149.01 -15.48 149.18 TC -16.00 148.90 7 16 252
1920 SP EA 06:00:00 TS -15.54 148.81 352 276 ______P__PP___ -1 -15.27 148.74 -15.54 148.93 TC -16.07 148.69 7 15 252
1920 SP EA 09:00:00 TS -15.74 148.08 276 252 ______P__PP___ -1 -15.36 147.95 -15.71 148.20 TC -16.29 148.08 7 15 252
1920 SP EA 10:00:00 TS -15.84 147.84 bom 243 195 ______O__PP___ -1 -15.40 147.70 -15.76 147.95 TC -16.37 147.88 7 14 252
1920 SP EA 12:00:00 TS -15.96 147.38 195 128 ______P__PP___ -1 -15.51 147.22 -15.87 147.46 TC -16.50 147.47 7 14 254
1920 SP EA 15:00:00 TS -16.15 146.71 128 84 ______P__PP___ -1 -15.72 146.53 -16.03 146.72 TC -16.69 146.88 7 13 254
1920 SP EA 17:00:00 TS -16.27 146.27 84 64 ______P__PO___ -1 -15.88 146.08 -16.14 146.23 TC -16.80 146.50 7 13 254
1920 SP EA 18:00:00 TS -16.33 146.05 53 15 ______P__PP___ -1 -15.95 145.85 -16.19 145.98 TC -16.85 146.31 7 13 255
1920 SP EA 20:00:00 TS -16.44 145.61 bom 15 0 ______O__PP___ -1 -16.10 145.40 -16.29 145.49 TC -16.94 145.94 7 13 254
1920 SP EA 21:00:00 TS -16.51 145.40 0 0 ______P__PP___ -1 -16.16 145.17 -16.35 145.24 TC -16.98 145.76 7 13 253
1920 SP EA 23:00:00 TS -16.63 144.98 988 bom 0 0 ______O__PP___ -1 -16.30 144.70 988 4 -16.45 144.75 TC -17.05 145.38 7 12 252
1920 SP EA 1920-02-03 00:00:00 TS -16.70 144.79 0 0 ______P__OP___ -1 -16.38 144.47 -16.50 144.50 TC 50 988 -17.08 145.19 7 12 249
1920 SP EA 03:00:00 NR -16.92 144.19 0 0 ______P___P___ -1 -16.67 143.82 TC -17.16 144.56 7 13 251
1920 SP EA 05:00:00 NR -17.05 143.75 0 0 ______P___O___ -1 -16.91 143.40 TC -17.20 144.10 7 14 252
1920 SP EA 06:00:00 NR -17.12 143.52 0 0 ______P___P___ -1 -17.03 143.19 TC -17.20 143.84 7 14 253
1920 SP EA 09:00:00 NR -17.32 142.80 0 0 ______P___P___ -1 -17.46 142.60 TC -17.19 143.01 7 15 253
1920 SP EA 12:00:00 NR -17.55 142.07 0 0 ______P___P___ -1 -17.93 142.02 TC -17.18 142.11 7 15 250
1920 SP EA 15:00:00 NR -17.83 141.33 0 0 ______P___P___ -1 -18.44 141.46 TC -17.22 141.20 7 15 247
1920 SP EA 17:00:00 NR -18.05 140.85 0 0 ______P___O___ -1 -18.79 141.09 TC -17.30 140.60 7 15 253
1920 SP EA 18:00:00 NR -18.05 140.55 0 0 ______P___P___ -1 -18.97 140.91 TC -17.36 140.29 7 17 260
1920 SP EA 21:00:00 NR -18.24 139.68 0 0 ______P___P___ -1 -19.53 140.36 TC -17.59 139.35 7 18 264
1920 SP EA 23:00:00 NR -18.22 138.99 bom 0 0 ______O___P___ -1 -19.90 140.00 TC -17.79 138.74 7 24 286
1920 SP EA 1920-02-04 00:00:00 NR -17.91 138.46 0 0 __________P___ -1 -17.91 138.46 7 19 266
1920 SP EA 03:00:00 NR -18.30 137.70 0 0 __________P___ -1 -18.30 137.70 7 16 238
1920 SP EA 05:00:00 NR -18.60 137.30 0 0 __________O___ -1 -18.60 137.30 7 14 230
1920 SP EA 06:00:00 NR -18.76 137.13 0 0 __________P___ -1 -18.76 137.13 7 13 218
1920 SP EA 09:00:00 NR -19.28 136.73 0 0 __________P___ -1 -19.28 136.73 7 12 207
1920 SP EA 12:00:00 NR -19.85 136.53 0 0 __________P___ -1 -19.85 136.53 7 12 190
1920 SP EA 15:00:00 NR -20.43 136.51 0 0 __________P___ -1 -20.43 136.51 7 11 176
1920 SP EA 17:00:00 NR -20.80 136.60 0 0 __________O___ -1 -20.80 136.60 7 11 166
1920 SP EA 18:00:00 NR -20.97 136.65 0 0 __________P___ -1 -20.97 136.65 7 11 154
1920 SP EA 21:00:00 NR -21.48 136.95 0 0 __________P___ -1 -21.48 136.95 7 12 145
1920 SP EA 1920-02-05 00:00:00 NR -21.94 137.39 0 0 __________P___ -1 -21.94 137.39 7 13 134
1920 SP EA 03:00:00 NR -22.36 137.92 0 0 __________P___ -1 -22.36 137.92 7 13 128
1920 SP EA 05:00:00 NR -22.60 138.30 0 0 __________O___ -1 -22.60 138.30 7 12 126
1920 SP EA 06:00:00 NR -22.72 138.46 0 0 __________P___ -1 -22.72 138.46 7 11 124
1920 SP EA 09:00:00 NR -23.02 138.98 0 0 __________P___ -1 -23.02 138.98 7 11 120
1920 SP EA 12:00:00 NR -23.28 139.54 0 0 __________P___ -1 -23.28 139.54 7 11 114
1920 SP EA 15:00:00 NR -23.48 140.11 0 0 __________P___ -1 -23.48 140.11 7 11 110
1920 SP EA 17:00:00 NR -23.60 140.50 0 0 __________O___ -1 -23.60 140.50 7 11 111
1920 SP EA 18:00:00 NR -23.67 140.66 0 0 __________P___ -1 -23.67 140.66 7 10 115
1920 SP EA 21:00:00 NR -23.88 141.15 0 0 __________P___ -1 -23.88 141.15 7 10 111
1920 SP EA 1920-02-06 00:00:00 NR -24.03 141.69 0 0 __________P___ -1 -24.03 141.69 7 11 102
1920 SP EA 03:00:00 NR -24.11 142.35 0 0 __________P___ -1 -24.11 142.35 7 13 94
1920 SP EA 05:00:00 NR -24.10 142.90 0 0 __________O___ -1 -24.10 142.90 7 16 89
1920 SP EA 06:00:00 NR -24.09 143.22 0 0 __________P___ -1 -24.09 143.22 7 20 85
1920 SP EA 09:00:00 NR -23.98 144.34 0 0 __________P___ -1 -23.98 144.34 7 22 82
1920 SP EA 12:00:00 NR -23.77 145.59 0 0 __________P___ -1 -23.77 145.59 7 24 78
1920 SP EA 15:00:00 NR -23.46 146.92 0 0 __________P___ -1 -23.46 146.92 7 25 74
1920 SP EA 17:00:00 NR -23.20 147.80 0 0 __________O___ -1 -23.20 147.80 7 26 71
1920 SP EA 18:00:00 NR -23.05 148.23 0 0 __________P___ -1 -23.05 148.23 7 25 68
1920 SP EA 21:00:00 NR -22.56 149.50 0 0 __________P___ -1 -22.56 149.50 7 25 66
1920 SP EA 1920-02-07 00:00:00 NR -22.01 150.72 44 44 __________P___ -1 -22.01 150.72 7 25 63
1920 SP EA 03:00:00 NR -21.41 151.92 166 166 __________P___ -1 -21.41 151.92 7 25 61
1920 SP EA 05:00:00 NR -21.00 152.70 258 __________O___ -1 -21.00 152.70 7 25 61